KFNT

Bishop International Airport

Flint, Michigan, USA
KFNT 251723Z 2518/2618 34012G18KT P6SM BKN025 BKN040 FM252300 32007KT P6SM SCT045 FM261000 27003KT 3SM BR SKC FM261300 26005KT P6SM SKC
Issued Valid From Valid To
Apr-25 @ 17:23 UTC
(24 minutes ago)
Apr-25 @ 18:00 UTC
(in 13 minutes)
Apr-26 @ 18:00 UTC
(in 24 hours)
Apr-25 @ 18:00 to Apr-25 @ 23:00
KFNT 251723Z 2518/2618 34012G18KT P6SM BKN025 BKN040
Wind Visibility Clouds
340° at 12 knots
 Gusting to 18 knots
Greater than 6 miles
  • Broken at 2,500' AGL
  • Broken at 4,000' AGL
From Apr-25 @ 23:00 to Apr-26 @ 10:00
FM252300 32007KT P6SM SCT045
Wind Visibility Clouds
320° at 7 knots Greater than 6 miles
  • Scattered at 4,500' AGL
From Apr-26 @ 10:00 to Apr-26 @ 13:00
FM261000 27003KT 3SM BR SKC
Wind Visibility Clouds Conditions
270° at 3 knots 3 miles
  • Clear skies
  • Mist
From Apr-26 @ 13:00 to Apr-26 @ 18:00
FM261300 26005KT P6SM SKC
Wind Visibility Clouds
260° at 5 knots Greater than 6 miles
  • Clear skies
KFNT 251723Z 2518/2618 34012G18KT P6SM BKN025 BKN040 FM252300 32007KT P6SM SCT045 FM261000 27003KT 3SM BR SKC FM261300 26005KT P6SM SKC
Issued Apr-25 @ 17:23 UTC
(24 minutes ago)
Valid From Apr-25 @ 18:00 UTC
(in 13 minutes)
Valid To Apr-26 @ 18:00 UTC
(in 24 hours)
Apr-25 @ 18:00 - Apr-25 @ 23:00
Wind Visibility
340° at 12 knots
 Gusting to 18 knots
Greater than 6 miles
Clouds
  • Broken at 2,500' AGL
  • Broken at 4,000' AGL
From Apr-25 @ 23:00 - Apr-26 @ 10:00
Wind Visibility
320° at 7 knots Greater than 6 miles
Clouds
  • Scattered at 4,500' AGL
From Apr-26 @ 10:00 - Apr-26 @ 13:00
Wind Visibility
270° at 3 knots 3 miles
Clouds
  • Clear skies
Conditions
  • Mist
From Apr-26 @ 13:00 - Apr-26 @ 18:00
Wind Visibility
260° at 5 knots Greater than 6 miles
Clouds
  • Clear skies